OEDF/DMM METAR and TAF weather

Enter ICAO airport designator
Station Type Date Time Source
OEDF METAR 2019/10/22 16:00 UTC NOAA

OEDF 221600Z 06009KT CAVOK 32/21 Q1010 NOSIG


Station Type Date Time Source
OEDF Decoded METAR 2019/10/22 16:00 UTC NOAA

Dammam-King Fahd International Airport, Saudi Arabia (OEDF) 26-28N 049-47E
Oct 22, 2019 - 12:00 PM EDT / 2019.10.22 1600 UTC
Wind: from the ENE (060 degrees) at 10 MPH (9 KT):0
Visibility: greater than 7 mile(s):0
Temperature: 89 F (32 C)
Dew Point: 69 F (21 C)
Relative Humidity: 52%
Pressure (altimeter): 29.83 in. Hg (1010 hPa)
ob: OEDF 221600Z 06009KT CAVOK 32/21 Q1010 NOSIG
cycle: 16

Station Type Date Time Source
OEDF TAF 2019/10/22 12:12 UTC NOAA

TAF TAF OEDF 220900Z 2212/2318 10012KT 8000 NSC
BECMG 2218/2220 17008KT
BECMG 2300/2302 22008KT
TEMPO 2302/2304 5000 HZ

Example: see airport list